sensor_id;sensor_type;location;lat;lon;timestamp;P1;durP1;ratioP1;P2;durP2;ratioP2
47381;SDS011;33128;51.580;5.170;2023-02-15T00:01:31;34.00;;;31.58;;
47381;SDS011;33128;51.580;5.170;2023-02-15T00:04:07;37.00;;;33.92;;
47381;SDS011;33128;51.580;5.170;2023-02-15T00:06:33;34.75;;;31.83;;
47381;SDS011;33128;51.580;5.170;2023-02-15T00:08:59;36.75;;;33.85;;
47381;SDS011;33128;51.580;5.170;2023-02-15T00:11:25;34.40;;;31.50;;
47381;SDS011;33128;51.580;5.170;2023-02-15T00:16:37;36.75;;;33.72;;
47381;SDS011;33128;51.580;5.170;2023-02-15T00:19:04;34.70;;;31.77;;
47381;SDS011;33128;51.580;5.170;2023-02-15T00:21:30;33.95;;;31.45;;
47381;SDS011;33128;51.580;5.170;2023-02-15T00:23:58;33.90;;;31.58;;
47381;SDS011;33128;51.580;5.170;2023-02-15T00:26:24;35.22;;;32.72;;
47381;SDS011;33128;51.580;5.170;2023-02-15T00:28:51;34.80;;;32.28;;
47381;SDS011;33128;51.580;5.170;2023-02-15T00:31:17;33.88;;;31.73;;
47381;SDS011;33128;51.580;5.170;2023-02-15T00:33:43;36.58;;;33.83;;
47381;SDS011;33128;51.580;5.170;2023-02-15T00:36:09;35.63;;;33.03;;
47381;SDS011;33128;51.580;5.170;2023-02-15T00:38:35;34.60;;;32.13;;
47381;SDS011;33128;51.580;5.170;2023-02-15T00:41:02;36.03;;;33.03;;
47381;SDS011;33128;51.580;5.170;2023-02-15T00:43:30;35.50;;;32.92;;
47381;SDS011;33128;51.580;5.170;2023-02-15T00:45:57;36.22;;;33.42;;
47381;SDS011;33128;51.580;5.170;2023-02-15T00:48:23;34.97;;;32.63;;
47381;SDS011;33128;51.580;5.170;2023-02-15T00:50:50;35.65;;;32.75;;
47381;SDS011;33128;51.580;5.170;2023-02-15T00:53:17;35.00;;;32.30;;
47381;SDS011;33128;51.580;5.170;2023-02-15T00:55:43;33.45;;;31.02;;
47381;SDS011;33128;51.580;5.170;2023-02-15T00:58:09;35.50;;;32.70;;
47381;SDS011;33128;51.580;5.170;2023-02-15T01:00:36;37.67;;;34.95;;
47381;SDS011;33128;51.580;5.170;2023-02-15T01:03:05;33.40;;;31.23;;
47381;SDS011;33128;51.580;5.170;2023-02-15T01:05:31;33.50;;;30.90;;
47381;SDS011;33128;51.580;5.170;2023-02-15T01:08:00;34.33;;;31.73;;
47381;SDS011;33128;51.580;5.170;2023-02-15T01:10:26;36.20;;;33.58;;
47381;SDS011;33128;51.580;5.170;2023-02-15T01:12:52;36.78;;;33.20;;
47381;SDS011;33128;51.580;5.170;2023-02-15T01:15:19;36.90;;;34.10;;
47381;SDS011;33128;51.580;5.170;2023-02-15T01:17:45;36.33;;;33.60;;
47381;SDS011;33128;51.580;5.170;2023-02-15T01:20:16;34.90;;;32.38;;
47381;SDS011;33128;51.580;5.170;2023-02-15T01:22:42;36.47;;;33.65;;
47381;SDS011;33128;51.580;5.170;2023-02-15T01:25:08;36.60;;;34.05;;
47381;SDS011;33128;51.580;5.170;2023-02-15T01:27:33;35.03;;;32.47;;
47381;SDS011;33128;51.580;5.170;2023-02-15T01:29:59;37.53;;;34.92;;
47381;SDS011;33128;51.580;5.170;2023-02-15T01:32:25;39.08;;;36.15;;
47381;SDS011;33128;51.580;5.170;2023-02-15T01:34:51;38.95;;;36.33;;
47381;SDS011;33128;51.580;5.170;2023-02-15T01:37:17;38.05;;;35.55;;
47381;SDS011;33128;51.580;5.170;2023-02-15T01:39:43;36.58;;;34.03;;
47381;SDS011;33128;51.580;5.170;2023-02-15T01:42:11;37.88;;;35.47;;
47381;SDS011;33128;51.580;5.170;2023-02-15T01:50:11;37.10;;;34.47;;
47381;SDS011;33128;51.580;5.170;2023-02-15T01:55:39;39.38;;;36.35;;
47381;SDS011;33128;51.580;5.170;2023-02-15T01:58:08;39.00;;;36.28;;
47381;SDS011;33128;51.580;5.170;2023-02-15T02:00:34;39.53;;;37.05;;
47381;SDS011;33128;51.580;5.170;2023-02-15T02:03:00;38.90;;;36.42;;
47381;SDS011;33128;51.580;5.170;2023-02-15T02:05:27;37.95;;;35.38;;
47381;SDS011;33128;51.580;5.170;2023-02-15T02:07:54;40.97;;;37.58;;
47381;SDS011;33128;51.580;5.170;2023-02-15T02:10:23;38.58;;;35.95;;
47381;SDS011;33128;51.580;5.170;2023-02-15T02:12:50;36.85;;;34.40;;
47381;SDS011;33128;51.580;5.170;2023-02-15T02:15:18;39.53;;;37.00;;
47381;SDS011;33128;51.580;5.170;2023-02-15T02:17:53;40.00;;;37.55;;
47381;SDS011;33128;51.580;5.170;2023-02-15T02:20:28;40.83;;;38.08;;
47381;SDS011;33128;51.580;5.170;2023-02-15T02:31:00;41.45;;;38.35;;
47381;SDS011;33128;51.580;5.170;2023-02-15T02:38:37;40.97;;;38.17;;
47381;SDS011;33128;51.580;5.170;2023-02-15T02:44:27;39.05;;;36.42;;
47381;SDS011;33128;51.580;5.170;2023-02-15T02:49:43;39.53;;;36.92;;
47381;SDS011;33128;51.580;5.170;2023-02-15T02:54:56;40.28;;;37.88;;
47381;SDS011;33128;51.580;5.170;2023-02-15T02:57:22;40.08;;;37.55;;
47381;SDS011;33128;51.580;5.170;2023-02-15T02:59:51;39.58;;;37.13;;
47381;SDS011;33128;51.580;5.170;2023-02-15T03:02:21;38.78;;;35.03;;
47381;SDS011;33128;51.580;5.170;2023-02-15T03:04:52;41.25;;;37.53;;
47381;SDS011;33128;51.580;5.170;2023-02-15T03:07:28;37.72;;;35.10;;
47381;SDS011;33128;51.580;5.170;2023-02-15T03:09:56;39.45;;;34.92;;
47381;SDS011;33128;51.580;5.170;2023-02-15T03:12:24;36.30;;;33.92;;
47381;SDS011;33128;51.580;5.170;2023-02-15T03:14:54;37.78;;;34.85;;
47381;SDS011;33128;51.580;5.170;2023-02-15T03:17:22;35.92;;;33.22;;
47381;SDS011;33128;51.580;5.170;2023-02-15T03:19:51;37.40;;;34.45;;
47381;SDS011;33128;51.580;5.170;2023-02-15T03:22:23;37.33;;;34.35;;
47381;SDS011;33128;51.580;5.170;2023-02-15T03:27:39;35.08;;;32.78;;
47381;SDS011;33128;51.580;5.170;2023-02-15T03:30:07;35.85;;;33.17;;
47381;SDS011;33128;51.580;5.170;2023-02-15T03:32:35;36.63;;;34.13;;
47381;SDS011;33128;51.580;5.170;2023-02-15T03:35:04;36.60;;;33.55;;
47381;SDS011;33128;51.580;5.170;2023-02-15T03:37:38;34.40;;;31.90;;
47381;SDS011;33128;51.580;5.170;2023-02-15T03:43:12;37.10;;;34.22;;
47381;SDS011;33128;51.580;5.170;2023-02-15T03:45:40;37.40;;;33.92;;
47381;SDS011;33128;51.580;5.170;2023-02-15T03:48:21;34.65;;;32.03;;
47381;SDS011;33128;51.580;5.170;2023-02-15T03:50:49;35.70;;;32.25;;
47381;SDS011;33128;51.580;5.170;2023-02-15T03:53:35;35.25;;;32.10;;
47381;SDS011;33128;51.580;5.170;2023-02-15T03:56:02;34.58;;;31.27;;
47381;SDS011;33128;51.580;5.170;2023-02-15T03:58:28;36.70;;;33.33;;
47381;SDS011;33128;51.580;5.170;2023-02-15T04:04:37;35.78;;;32.53;;
47381;SDS011;33128;51.580;5.170;2023-02-15T04:07:06;34.72;;;32.65;;
47381;SDS011;33128;51.580;5.170;2023-02-15T04:09:33;35.35;;;32.72;;
47381;SDS011;33128;51.580;5.170;2023-02-15T04:12:17;36.30;;;33.05;;
47381;SDS011;33128;51.580;5.170;2023-02-15T04:14:43;34.78;;;31.73;;
47381;SDS011;33128;51.580;5.170;2023-02-15T04:17:27;31.83;;;29.45;;
47381;SDS011;33128;51.580;5.170;2023-02-15T04:19:52;33.25;;;30.40;;
47381;SDS011;33128;51.580;5.170;2023-02-15T04:22:37;33.15;;;31.17;;
47381;SDS011;33128;51.580;5.170;2023-02-15T04:25:21;32.15;;;29.75;;
47381;SDS011;33128;51.580;5.170;2023-02-15T04:27:47;30.25;;;27.70;;
47381;SDS011;33128;51.580;5.170;2023-02-15T04:30:15;32.40;;;30.02;;
47381;SDS011;33128;51.580;5.170;2023-02-15T04:32:43;33.15;;;30.80;;
47381;SDS011;33128;51.580;5.170;2023-02-15T04:35:09;32.90;;;30.63;;
47381;SDS011;33128;51.580;5.170;2023-02-15T04:37:34;35.65;;;32.47;;
47381;SDS011;33128;51.580;5.170;2023-02-15T04:40:00;31.75;;;29.63;;
47381;SDS011;33128;51.580;5.170;2023-02-15T04:42:26;32.33;;;29.50;;
47381;SDS011;33128;51.580;5.170;2023-02-15T04:44:53;34.17;;;31.13;;
47381;SDS011;33128;51.580;5.170;2023-02-15T04:47:18;30.30;;;27.98;;
47381;SDS011;33128;51.580;5.170;2023-02-15T04:49:44;34.63;;;32.10;;
47381;SDS011;33128;51.580;5.170;2023-02-15T04:52:10;30.48;;;27.92;;
47381;SDS011;33128;51.580;5.170;2023-02-15T04:54:36;33.60;;;30.20;;
47381;SDS011;33128;51.580;5.170;2023-02-15T04:57:03;31.85;;;29.75;;
47381;SDS011;33128;51.580;5.170;2023-02-15T04:59:28;32.38;;;30.00;;
47381;SDS011;33128;51.580;5.170;2023-02-15T05:01:54;30.67;;;28.50;;
47381;SDS011;33128;51.580;5.170;2023-02-15T05:04:22;30.42;;;28.00;;
47381;SDS011;33128;51.580;5.170;2023-02-15T05:06:48;32.42;;;29.60;;
47381;SDS011;33128;51.580;5.170;2023-02-15T05:09:14;26.15;;;23.77;;
47381;SDS011;33128;51.580;5.170;2023-02-15T05:11:40;31.75;;;28.80;;
47381;SDS011;33128;51.580;5.170;2023-02-15T05:14:05;28.35;;;26.48;;
47381;SDS011;33128;51.580;5.170;2023-02-15T05:16:31;29.58;;;27.52;;
47381;SDS011;33128;51.580;5.170;2023-02-15T05:18:57;31.60;;;28.55;;
47381;SDS011;33128;51.580;5.170;2023-02-15T05:21:23;32.03;;;29.55;;
47381;SDS011;33128;51.580;5.170;2023-02-15T05:23:48;29.35;;;27.10;;
47381;SDS011;33128;51.580;5.170;2023-02-15T05:26:18;27.80;;;25.38;;
47381;SDS011;33128;51.580;5.170;2023-02-15T05:29:04;28.48;;;25.77;;
47381;SDS011;33128;51.580;5.170;2023-02-15T05:31:30;30.00;;;27.75;;
47381;SDS011;33128;51.580;5.170;2023-02-15T05:33:56;29.30;;;27.45;;
47381;SDS011;33128;51.580;5.170;2023-02-15T05:36:28;28.60;;;26.05;;
47381;SDS011;33128;51.580;5.170;2023-02-15T05:38:54;28.85;;;25.73;;
47381;SDS011;33128;51.580;5.170;2023-02-15T05:41:20;31.00;;;28.38;;
47381;SDS011;33128;51.580;5.170;2023-02-15T05:43:47;27.73;;;25.67;;
47381;SDS011;33128;51.580;5.170;2023-02-15T05:46:13;28.33;;;25.88;;
47381;SDS011;33128;51.580;5.170;2023-02-15T05:48:38;31.65;;;29.27;;
47381;SDS011;33128;51.580;5.170;2023-02-15T05:51:05;27.42;;;25.67;;
47381;SDS011;33128;51.580;5.170;2023-02-15T05:53:34;26.83;;;24.92;;
47381;SDS011;33128;51.580;5.170;2023-02-15T05:56:01;29.45;;;27.40;;
47381;SDS011;33128;51.580;5.170;2023-02-15T05:58:29;28.73;;;26.30;;
47381;SDS011;33128;51.580;5.170;2023-02-15T06:00:56;31.33;;;28.65;;
47381;SDS011;33128;51.580;5.170;2023-02-15T06:03:22;28.73;;;26.67;;
47381;SDS011;33128;51.580;5.170;2023-02-15T06:05:50;27.92;;;25.83;;
47381;SDS011;33128;51.580;5.170;2023-02-15T06:08:17;29.20;;;26.98;;
47381;SDS011;33128;51.580;5.170;2023-02-15T06:10:44;26.40;;;24.83;;
47381;SDS011;33128;51.580;5.170;2023-02-15T06:13:11;28.38;;;26.13;;
47381;SDS011;33128;51.580;5.170;2023-02-15T06:15:39;25.58;;;23.92;;
47381;SDS011;33128;51.580;5.170;2023-02-15T06:18:05;24.75;;;23.08;;
47381;SDS011;33128;51.580;5.170;2023-02-15T06:20:30;28.13;;;25.80;;
47381;SDS011;33128;51.580;5.170;2023-02-15T06:22:56;28.83;;;26.17;;
47381;SDS011;33128;51.580;5.170;2023-02-15T06:25:21;27.13;;;25.25;;
47381;SDS011;33128;51.580;5.170;2023-02-15T06:27:47;27.75;;;25.10;;
47381;SDS011;33128;51.580;5.170;2023-02-15T06:30:14;27.00;;;24.70;;
47381;SDS011;33128;51.580;5.170;2023-02-15T06:32:39;25.88;;;23.50;;
47381;SDS011;33128;51.580;5.170;2023-02-15T06:35:05;28.30;;;26.25;;
47381;SDS011;33128;51.580;5.170;2023-02-15T06:37:31;37.10;;;33.90;;
47381;SDS011;33128;51.580;5.170;2023-02-15T06:40:03;34.90;;;32.75;;
47381;SDS011;33128;51.580;5.170;2023-02-15T06:42:29;37.97;;;35.25;;
47381;SDS011;33128;51.580;5.170;2023-02-15T06:44:55;37.20;;;35.05;;
47381;SDS011;33128;51.580;5.170;2023-02-15T06:47:21;35.70;;;33.22;;
47381;SDS011;33128;51.580;5.170;2023-02-15T06:49:46;36.55;;;33.97;;
47381;SDS011;33128;51.580;5.170;2023-02-15T06:52:12;33.85;;;31.92;;
47381;SDS011;33128;51.580;5.170;2023-02-15T06:54:37;33.72;;;31.80;;
47381;SDS011;33128;51.580;5.170;2023-02-15T06:57:03;31.92;;;29.70;;
47381;SDS011;33128;51.580;5.170;2023-02-15T06:59:28;29.70;;;27.40;;
47381;SDS011;33128;51.580;5.170;2023-02-15T07:01:54;30.85;;;28.08;;
47381;SDS011;33128;51.580;5.170;2023-02-15T07:04:19;29.10;;;26.35;;
47381;SDS011;33128;51.580;5.170;2023-02-15T07:06:45;28.90;;;26.25;;
47381;SDS011;33128;51.580;5.170;2023-02-15T07:09:11;29.33;;;26.60;;
47381;SDS011;33128;51.580;5.170;2023-02-15T07:11:37;27.33;;;24.77;;
47381;SDS011;33128;51.580;5.170;2023-02-15T07:14:22;27.63;;;25.35;;
47381;SDS011;33128;51.580;5.170;2023-02-15T07:16:47;25.27;;;22.98;;
47381;SDS011;33128;51.580;5.170;2023-02-15T07:19:13;29.42;;;26.92;;
47381;SDS011;33128;51.580;5.170;2023-02-15T07:21:45;26.30;;;24.27;;
47381;SDS011;33128;51.580;5.170;2023-02-15T07:24:10;27.15;;;24.98;;
47381;SDS011;33128;51.580;5.170;2023-02-15T07:26:36;27.70;;;25.48;;
47381;SDS011;33128;51.580;5.170;2023-02-15T07:29:02;29.85;;;27.10;;
47381;SDS011;33128;51.580;5.170;2023-02-15T07:31:27;28.63;;;26.17;;
47381;SDS011;33128;51.580;5.170;2023-02-15T07:33:53;30.13;;;27.55;;
47381;SDS011;33128;51.580;5.170;2023-02-15T07:36:19;26.88;;;24.80;;
47381;SDS011;33128;51.580;5.170;2023-02-15T07:38:44;30.10;;;27.55;;
47381;SDS011;33128;51.580;5.170;2023-02-15T07:41:11;25.02;;;23.33;;
47381;SDS011;33128;51.580;5.170;2023-02-15T07:43:39;30.52;;;27.80;;
47381;SDS011;33128;51.580;5.170;2023-02-15T07:46:07;26.08;;;24.35;;
47381;SDS011;33128;51.580;5.170;2023-02-15T07:48:36;29.05;;;26.67;;
47381;SDS011;33128;51.580;5.170;2023-02-15T07:51:04;31.67;;;29.42;;
47381;SDS011;33128;51.580;5.170;2023-02-15T07:53:31;32.72;;;30.63;;
47381;SDS011;33128;51.580;5.170;2023-02-15T07:56:08;33.13;;;29.00;;
47381;SDS011;33128;51.580;5.170;2023-02-15T07:58:36;32.72;;;30.38;;
47381;SDS011;33128;51.580;5.170;2023-02-15T08:01:17;31.13;;;28.08;;
47381;SDS011;33128;51.580;5.170;2023-02-15T08:03:54;31.65;;;29.80;;
47381;SDS011;33128;51.580;5.170;2023-02-15T08:06:21;31.35;;;28.67;;
47381;SDS011;33128;51.580;5.170;2023-02-15T08:08:48;31.13;;;29.08;;
47381;SDS011;33128;51.580;5.170;2023-02-15T08:11:15;31.13;;;29.27;;
47381;SDS011;33128;51.580;5.170;2023-02-15T08:16:39;30.65;;;28.38;;
47381;SDS011;33128;51.580;5.170;2023-02-15T08:19:09;30.17;;;28.00;;
47381;SDS011;33128;51.580;5.170;2023-02-15T08:21:56;29.13;;;27.10;;
47381;SDS011;33128;51.580;5.170;2023-02-15T08:24:27;31.63;;;29.42;;
47381;SDS011;33128;51.580;5.170;2023-02-15T08:26:54;30.70;;;28.15;;
47381;SDS011;33128;51.580;5.170;2023-02-15T08:29:21;31.92;;;29.52;;
47381;SDS011;33128;51.580;5.170;2023-02-15T08:31:49;32.72;;;30.02;;
47381;SDS011;33128;51.580;5.170;2023-02-15T08:34:16;31.23;;;28.63;;
47381;SDS011;33128;51.580;5.170;2023-02-15T08:36:44;30.17;;;27.70;;
47381;SDS011;33128;51.580;5.170;2023-02-15T08:39:13;30.30;;;27.42;;
47381;SDS011;33128;51.580;5.170;2023-02-15T08:41:41;31.13;;;28.92;;
47381;SDS011;33128;51.580;5.170;2023-02-15T08:44:08;29.67;;;27.67;;
47381;SDS011;33128;51.580;5.170;2023-02-15T08:46:44;29.50;;;27.23;;
47381;SDS011;33128;51.580;5.170;2023-02-15T08:51:38;29.92;;;27.77;;
47381;SDS011;33128;51.580;5.170;2023-02-15T08:54:06;31.10;;;28.70;;
47381;SDS011;33128;51.580;5.170;2023-02-15T08:56:37;30.08;;;27.90;;
47381;SDS011;33128;51.580;5.170;2023-02-15T08:59:05;29.65;;;27.50;;
47381;SDS011;33128;51.580;5.170;2023-02-15T09:01:32;30.75;;;28.42;;
47381;SDS011;33128;51.580;5.170;2023-02-15T09:04:03;33.17;;;30.10;;
47381;SDS011;33128;51.580;5.170;2023-02-15T09:06:31;31.38;;;28.90;;
47381;SDS011;33128;51.580;5.170;2023-02-15T09:08:57;31.85;;;29.52;;
47381;SDS011;33128;51.580;5.170;2023-02-15T09:11:27;33.67;;;31.13;;
47381;SDS011;33128;51.580;5.170;2023-02-15T09:13:55;32.03;;;29.67;;
47381;SDS011;33128;51.580;5.170;2023-02-15T09:16:23;30.92;;;28.65;;
47381;SDS011;33128;51.580;5.170;2023-02-15T09:18:51;32.05;;;29.48;;
47381;SDS011;33128;51.580;5.170;2023-02-15T09:21:18;31.45;;;29.27;;
47381;SDS011;33128;51.580;5.170;2023-02-15T09:23:47;32.83;;;30.23;;
47381;SDS011;33128;51.580;5.170;2023-02-15T09:26:15;30.98;;;28.75;;
47381;SDS011;33128;51.580;5.170;2023-02-15T09:28:43;32.60;;;29.95;;
47381;SDS011;33128;51.580;5.170;2023-02-15T09:31:13;32.78;;;30.30;;
47381;SDS011;33128;51.580;5.170;2023-02-15T09:33:44;33.00;;;30.33;;
47381;SDS011;33128;51.580;5.170;2023-02-15T09:38:43;31.65;;;29.05;;
47381;SDS011;33128;51.580;5.170;2023-02-15T09:41:28;32.08;;;29.40;;
47381;SDS011;33128;51.580;5.170;2023-02-15T09:57:52;32.03;;;29.55;;
47381;SDS011;33128;51.580;5.170;2023-02-15T10:00:36;31.83;;;29.83;;
47381;SDS011;33128;51.580;5.170;2023-02-15T10:03:15;33.40;;;30.58;;
47381;SDS011;33128;51.580;5.170;2023-02-15T10:09:06;33.50;;;30.77;;
47381;SDS011;33128;51.580;5.170;2023-02-15T10:21:35;32.92;;;30.27;;
47381;SDS011;33128;51.580;5.170;2023-02-15T10:28:51;33.08;;;30.35;;
47381;SDS011;33128;51.580;5.170;2023-02-15T10:31:47;32.97;;;30.30;;
47381;SDS011;33128;51.580;5.170;2023-02-15T10:40:00;28.75;;;26.75;;
47381;SDS011;33128;51.580;5.170;2023-02-15T10:42:53;28.50;;;26.55;;
47381;SDS011;33128;51.580;5.170;2023-02-15T10:51:02;31.95;;;29.17;;
47381;SDS011;33128;51.580;5.170;2023-02-15T11:02:01;31.60;;;29.57;;
47381;SDS011;33128;51.580;5.170;2023-02-15T11:07:23;31.95;;;29.63;;
47381;SDS011;33128;51.580;5.170;2023-02-15T11:10:05;30.95;;;28.63;;
47381;SDS011;33128;51.580;5.170;2023-02-15T11:12:47;33.15;;;30.20;;
47381;SDS011;33128;51.580;5.170;2023-02-15T11:18:08;34.03;;;30.90;;
47381;SDS011;33128;51.580;5.170;2023-02-15T11:20:45;30.83;;;28.27;;
47381;SDS011;33128;51.580;5.170;2023-02-15T11:23:14;31.25;;;28.77;;
47381;SDS011;33128;51.580;5.170;2023-02-15T11:25:55;31.30;;;28.80;;
47381;SDS011;33128;51.580;5.170;2023-02-15T11:28:31;33.25;;;30.77;;
47381;SDS011;33128;51.580;5.170;2023-02-15T11:31:13;34.03;;;30.88;;
47381;SDS011;33128;51.580;5.170;2023-02-15T11:33:43;35.30;;;32.55;;
47381;SDS011;33128;51.580;5.170;2023-02-15T11:36:27;33.63;;;30.85;;
47381;SDS011;33128;51.580;5.170;2023-02-15T11:39:00;32.92;;;30.63;;
47381;SDS011;33128;51.580;5.170;2023-02-15T11:41:34;32.03;;;29.48;;
47381;SDS011;33128;51.580;5.170;2023-02-15T11:44:06;34.95;;;32.00;;
47381;SDS011;33128;51.580;5.170;2023-02-15T11:46:40;33.85;;;31.25;;
47381;SDS011;33128;51.580;5.170;2023-02-15T11:49:22;33.97;;;31.08;;
47381;SDS011;33128;51.580;5.170;2023-02-15T11:52:02;32.50;;;29.85;;
47381;SDS011;33128;51.580;5.170;2023-02-15T11:54:32;33.22;;;30.60;;
47381;SDS011;33128;51.580;5.170;2023-02-15T11:57:43;33.30;;;30.48;;
47381;SDS011;33128;51.580;5.170;2023-02-15T11:59:50;34.80;;;31.92;;
47381;SDS011;33128;51.580;5.170;2023-02-15T12:02:21;34.85;;;31.65;;
47381;SDS011;33128;51.580;5.170;2023-02-15T12:04:52;34.03;;;31.25;;
47381;SDS011;33128;51.580;5.170;2023-02-15T12:07:27;31.23;;;28.63;;
47381;SDS011;33128;51.580;5.170;2023-02-15T12:10:05;32.78;;;30.17;;
47381;SDS011;33128;51.580;5.170;2023-02-15T12:12:39;33.47;;;30.58;;
47381;SDS011;33128;51.580;5.170;2023-02-15T12:15:06;32.00;;;29.25;;
47381;SDS011;33128;51.580;5.170;2023-02-15T12:17:48;31.83;;;29.13;;
47381;SDS011;33128;51.580;5.170;2023-02-15T12:22:46;35.08;;;32.30;;
47381;SDS011;33128;51.580;5.170;2023-02-15T12:25:23;34.80;;;32.00;;
47381;SDS011;33128;51.580;5.170;2023-02-15T12:27:54;33.08;;;30.40;;
47381;SDS011;33128;51.580;5.170;2023-02-15T12:30:25;33.38;;;30.08;;
47381;SDS011;33128;51.580;5.170;2023-02-15T12:33:05;32.25;;;29.63;;
47381;SDS011;33128;51.580;5.170;2023-02-15T12:35:33;31.10;;;28.67;;
47381;SDS011;33128;51.580;5.170;2023-02-15T12:38:02;30.05;;;28.13;;
47381;SDS011;33128;51.580;5.170;2023-02-15T12:40:31;30.88;;;28.75;;
47381;SDS011;33128;51.580;5.170;2023-02-15T12:42:59;30.55;;;28.33;;
47381;SDS011;33128;51.580;5.170;2023-02-15T12:45:29;30.52;;;28.33;;
47381;SDS011;33128;51.580;5.170;2023-02-15T12:50:46;31.48;;;29.42;;
47381;SDS011;33128;51.580;5.170;2023-02-15T12:53:15;32.15;;;30.00;;
47381;SDS011;33128;51.580;5.170;2023-02-15T12:55:58;29.27;;;27.38;;
47381;SDS011;33128;51.580;5.170;2023-02-15T12:58:26;30.33;;;28.23;;
47381;SDS011;33128;51.580;5.170;2023-02-15T13:01:15;30.40;;;28.50;;
47381;SDS011;33128;51.580;5.170;2023-02-15T13:06:54;32.17;;;29.95;;
47381;SDS011;33128;51.580;5.170;2023-02-15T13:09:44;31.27;;;29.10;;
47381;SDS011;33128;51.580;5.170;2023-02-15T13:14:48;31.40;;;29.23;;
47381;SDS011;33128;51.580;5.170;2023-02-15T13:17:16;29.70;;;27.83;;
47381;SDS011;33128;51.580;5.170;2023-02-15T13:19:47;28.77;;;26.85;;
47381;SDS011;33128;51.580;5.170;2023-02-15T13:22:18;29.35;;;27.25;;
47381;SDS011;33128;51.580;5.170;2023-02-15T13:24:56;29.95;;;27.77;;
47381;SDS011;33128;51.580;5.170;2023-02-15T13:27:25;29.92;;;27.92;;
47381;SDS011;33128;51.580;5.170;2023-02-15T13:29:59;29.75;;;27.80;;
47381;SDS011;33128;51.580;5.170;2023-02-15T13:32:30;31.75;;;29.52;;
47381;SDS011;33128;51.580;5.170;2023-02-15T13:35:01;28.10;;;26.50;;
47381;SDS011;33128;51.580;5.170;2023-02-15T13:40:14;33.90;;;31.30;;
47381;SDS011;33128;51.580;5.170;2023-02-15T13:42:48;33.35;;;31.10;;
47381;SDS011;33128;51.580;5.170;2023-02-15T13:48:29;33.53;;;30.92;;
47381;SDS011;33128;51.580;5.170;2023-02-15T13:51:21;34.60;;;31.95;;
47381;SDS011;33128;51.580;5.170;2023-02-15T13:54:01;33.15;;;30.75;;
47381;SDS011;33128;51.580;5.170;2023-02-15T13:56:45;34.40;;;31.58;;
47381;SDS011;33128;51.580;5.170;2023-02-15T14:00:08;36.10;;;33.35;;
47381;SDS011;33128;51.580;5.170;2023-02-15T14:05:39;35.58;;;32.65;;
47381;SDS011;33128;51.580;5.170;2023-02-15T14:11:32;34.25;;;31.40;;
47381;SDS011;33128;51.580;5.170;2023-02-15T14:14:11;35.75;;;32.83;;
47381;SDS011;33128;51.580;5.170;2023-02-15T14:20:17;35.50;;;32.30;;
47381;SDS011;33128;51.580;5.170;2023-02-15T14:25:54;34.72;;;31.65;;
47381;SDS011;33128;51.580;5.170;2023-02-15T14:31:04;35.88;;;32.95;;
47381;SDS011;33128;51.580;5.170;2023-02-15T14:33:33;36.25;;;33.05;;
47381;SDS011;33128;51.580;5.170;2023-02-15T14:36:02;34.58;;;31.70;;
47381;SDS011;33128;51.580;5.170;2023-02-15T14:41:29;35.90;;;32.85;;
47381;SDS011;33128;51.580;5.170;2023-02-15T14:44:16;35.08;;;32.45;;
47381;SDS011;33128;51.580;5.170;2023-02-15T14:49:42;38.45;;;34.72;;
47381;SDS011;33128;51.580;5.170;2023-02-15T14:52:08;35.50;;;32.65;;
47381;SDS011;33128;51.580;5.170;2023-02-15T15:02:13;32.20;;;29.85;;
47381;SDS011;33128;51.580;5.170;2023-02-15T15:12:51;35.40;;;32.60;;
47381;SDS011;33128;51.580;5.170;2023-02-15T15:18:06;34.78;;;31.75;;
47381;SDS011;33128;51.580;5.170;2023-02-15T15:25:41;35.20;;;31.80;;
47381;SDS011;33128;51.580;5.170;2023-02-15T15:30:55;34.95;;;32.00;;
47381;SDS011;33128;51.580;5.170;2023-02-15T15:39:21;34.35;;;31.40;;
47381;SDS011;33128;51.580;5.170;2023-02-15T15:42:12;35.78;;;32.47;;
47381;SDS011;33128;51.580;5.170;2023-02-15T15:48:08;34.28;;;31.35;;
47381;SDS011;33128;51.580;5.170;2023-02-15T15:50:46;34.75;;;31.85;;
47381;SDS011;33128;51.580;5.170;2023-02-15T15:53:20;33.00;;;30.73;;
47381;SDS011;33128;51.580;5.170;2023-02-15T15:55:49;34.88;;;32.28;;
47381;SDS011;33128;51.580;5.170;2023-02-15T15:58:19;34.75;;;32.20;;
47381;SDS011;33128;51.580;5.170;2023-02-15T16:00:49;36.13;;;32.92;;
47381;SDS011;33128;51.580;5.170;2023-02-15T16:03:28;34.17;;;31.58;;
47381;SDS011;33128;51.580;5.170;2023-02-15T16:05:54;33.05;;;30.48;;
47381;SDS011;33128;51.580;5.170;2023-02-15T16:08:28;32.13;;;29.50;;
47381;SDS011;33128;51.580;5.170;2023-02-15T16:10:58;30.92;;;28.70;;
47381;SDS011;33128;51.580;5.170;2023-02-15T16:13:32;31.10;;;28.33;;
47381;SDS011;33128;51.580;5.170;2023-02-15T16:15:58;29.67;;;27.10;;
47381;SDS011;33128;51.580;5.170;2023-02-15T16:18:25;29.92;;;27.42;;
47381;SDS011;33128;51.580;5.170;2023-02-15T16:21:01;30.13;;;27.73;;
47381;SDS011;33128;51.580;5.170;2023-02-15T16:28:33;29.15;;;26.77;;
47381;SDS011;33128;51.580;5.170;2023-02-15T16:31:04;29.90;;;27.55;;
47381;SDS011;33128;51.580;5.170;2023-02-15T16:33:35;29.10;;;26.63;;
47381;SDS011;33128;51.580;5.170;2023-02-15T16:36:03;29.67;;;27.50;;
47381;SDS011;33128;51.580;5.170;2023-02-15T16:41:08;28.30;;;25.95;;
47381;SDS011;33128;51.580;5.170;2023-02-15T16:43:35;30.70;;;28.08;;
47381;SDS011;33128;51.580;5.170;2023-02-15T16:46:03;29.35;;;26.77;;
47381;SDS011;33128;51.580;5.170;2023-02-15T16:48:37;28.65;;;26.48;;
47381;SDS011;33128;51.580;5.170;2023-02-15T16:51:06;30.30;;;27.75;;
47381;SDS011;33128;51.580;5.170;2023-02-15T16:53:33;30.30;;;27.75;;
47381;SDS011;33128;51.580;5.170;2023-02-15T16:56:00;30.52;;;28.02;;
47381;SDS011;33128;51.580;5.170;2023-02-15T16:58:35;30.30;;;28.10;;
47381;SDS011;33128;51.580;5.170;2023-02-15T17:01:05;29.98;;;27.70;;
47381;SDS011;33128;51.580;5.170;2023-02-15T17:03:34;29.52;;;27.38;;
47381;SDS011;33128;51.580;5.170;2023-02-15T17:06:00;30.48;;;27.88;;
47381;SDS011;33128;51.580;5.170;2023-02-15T17:08:29;30.17;;;27.77;;
47381;SDS011;33128;51.580;5.170;2023-02-15T17:13:29;31.02;;;28.23;;
47381;SDS011;33128;51.580;5.170;2023-02-15T17:18:24;30.20;;;27.50;;
47381;SDS011;33128;51.580;5.170;2023-02-15T17:20:57;30.05;;;27.33;;
47381;SDS011;33128;51.580;5.170;2023-02-15T17:23:28;31.60;;;28.70;;
47381;SDS011;33128;51.580;5.170;2023-02-15T17:25:55;30.27;;;27.83;;
47381;SDS011;33128;51.580;5.170;2023-02-15T17:28:25;29.02;;;26.60;;
47381;SDS011;33128;51.580;5.170;2023-02-15T17:30:53;28.15;;;25.88;;
47381;SDS011;33128;51.580;5.170;2023-02-15T17:33:21;31.73;;;28.42;;
47381;SDS011;33128;51.580;5.170;2023-02-15T17:38:36;29.52;;;26.63;;
47381;SDS011;33128;51.580;5.170;2023-02-15T17:41:03;28.95;;;26.73;;
47381;SDS011;33128;51.580;5.170;2023-02-15T17:43:29;27.58;;;25.15;;
47381;SDS011;33128;51.580;5.170;2023-02-15T17:45:56;27.38;;;25.23;;
47381;SDS011;33128;51.580;5.170;2023-02-15T17:48:24;33.97;;;30.67;;
47381;SDS011;33128;51.580;5.170;2023-02-15T17:50:58;30.52;;;28.15;;
47381;SDS011;33128;51.580;5.170;2023-02-15T17:53:26;32.80;;;29.85;;
47381;SDS011;33128;51.580;5.170;2023-02-15T17:55:51;33.28;;;30.30;;